createdAt,value
2018-09-21T00:01:49.013Z,98868.41
2018-09-21T00:04:19.451Z,98868.58
2018-09-21T00:06:49.909Z,98870.20
2018-09-21T00:09:20.482Z,98862.08
2018-09-21T00:11:50.859Z,98864.53
2018-09-21T00:14:21.405Z,98866.83
2018-09-21T00:16:52.101Z,98866.00
2018-09-21T00:19:22.547Z,98860.20
2018-09-21T00:21:53.202Z,98856.88
2018-09-21T00:24:23.727Z,98854.39
2018-09-21T00:26:54.325Z,98865.47
2018-09-21T00:29:24.785Z,98861.30
2018-09-21T00:31:55.213Z,98861.83
2018-09-21T00:34:25.766Z,98860.96
2018-09-21T00:36:56.125Z,98863.39
2018-09-21T00:39:26.703Z,98862.05
2018-09-21T00:41:57.140Z,98869.59
2018-09-21T00:44:27.583Z,98869.92
2018-09-21T00:46:58.203Z,98867.95
2018-09-21T00:49:29.064Z,98861.66
2018-09-21T00:51:59.663Z,98862.69
2018-09-21T00:54:30.246Z,98863.63
2018-09-21T00:57:00.813Z,98862.28
2018-09-21T00:59:31.673Z,98860.67
2018-09-21T01:02:02.117Z,98851.73
2018-09-21T01:04:37.690Z,98850.08
2018-09-21T01:07:08.283Z,98849.92
2018-09-21T01:09:38.848Z,98845.47
2018-09-21T01:12:09.399Z,98841.15
2018-09-21T01:14:39.749Z,98841.80
2018-09-21T01:17:10.423Z,98837.83
2018-09-21T01:19:40.938Z,98841.98
2018-09-21T01:22:12.166Z,98840.50
2018-09-21T01:24:43.602Z,98838.98
2018-09-21T01:27:15.701Z,98845.09
2018-09-21T01:29:46.577Z,98845.58
2018-09-21T01:32:17.029Z,98838.48
2018-09-21T01:34:47.439Z,98836.34
2018-09-21T01:37:18.078Z,98826.44
2018-09-21T01:39:48.596Z,98832.25
2018-09-21T01:42:19.088Z,98834.91
2018-09-21T01:44:50.324Z,98832.94
2018-09-21T01:47:21.073Z,98820.88
2018-09-21T01:49:51.900Z,98819.06
2018-09-21T01:52:22.798Z,98817.74
2018-09-21T01:54:53.412Z,98815.75
2018-09-21T01:57:24.043Z,98815.75
2018-09-21T01:59:54.624Z,98825.47
2018-09-21T02:02:25.092Z,98824.58
2018-09-21T02:04:55.739Z,98824.17
2018-09-21T02:07:26.215Z,98828.75
2018-09-21T02:09:56.694Z,98827.73
2018-09-21T02:12:27.310Z,98828.18
2018-09-21T02:14:57.816Z,98824.99
2018-09-21T02:17:28.357Z,98832.53
2018-09-21T02:19:58.988Z,98828.83
2018-09-21T02:22:29.526Z,98824.02
2018-09-21T02:25:00.223Z,98824.47
2018-09-21T02:27:30.600Z,98824.56
2018-09-21T02:30:01.031Z,98827.98
2018-09-21T02:32:31.567Z,98824.13
2018-09-21T02:35:02.122Z,98818.30
2018-09-21T02:37:32.562Z,98815.14
2018-09-21T02:40:03.141Z,98822.53
2018-09-21T02:42:33.531Z,98825.63
2018-09-21T02:45:04.011Z,98831.34
2018-09-21T02:47:34.495Z,98832.98
2018-09-21T02:50:05.113Z,98830.14
2018-09-21T02:52:35.631Z,98827.46
2018-09-21T02:55:06.177Z,98835.66
2018-09-21T02:57:36.725Z,98831.66
2018-09-21T03:00:08.738Z,98832.78
2018-09-21T03:02:40.134Z,98829.33
2018-09-21T03:05:10.862Z,98834.56
2018-09-21T03:07:41.412Z,98835.69
2018-09-21T03:10:12.142Z,98825.77
2018-09-21T03:12:42.642Z,98828.41
2018-09-21T03:15:14.033Z,98836.52
2018-09-21T03:17:44.624Z,98837.33
2018-09-21T03:20:15.463Z,98838.96
2018-09-21T03:22:46.056Z,98839.23
2018-09-21T03:25:16.615Z,98832.05
2018-09-21T03:27:47.135Z,98835.00
2018-09-21T03:30:17.725Z,98833.13
2018-09-21T03:32:48.190Z,98831.12
2018-09-21T03:35:18.931Z,98821.35
2018-09-21T03:37:49.881Z,98815.67
2018-09-21T03:40:20.288Z,98820.06
2018-09-21T03:42:50.866Z,98811.94
2018-09-21T03:45:21.493Z,98811.89
2018-09-21T03:47:51.995Z,98809.84
2018-09-21T03:50:22.475Z,98819.09
2018-09-21T03:52:53.088Z,98810.06
2018-09-21T03:55:23.580Z,98808.12
2018-09-21T03:57:54.054Z,98809.27
2018-09-21T04:00:24.534Z,98804.63
2018-09-21T04:02:55.266Z,98813.30
2018-09-21T04:05:25.718Z,98814.08
2018-09-21T04:07:56.939Z,98808.80
2018-09-21T04:10:27.556Z,98813.92
2018-09-21T04:12:58.133Z,98820.04
2018-09-21T04:15:28.848Z,98822.14
2018-09-21T04:17:59.257Z,98820.13
2018-09-21T04:20:29.939Z,98812.70
2018-09-21T04:23:01.955Z,98813.81
2018-09-21T04:25:33.266Z,98817.86
2018-09-21T04:28:03.940Z,98819.66
2018-09-21T04:30:34.507Z,98819.30
2018-09-21T04:33:04.923Z,98826.52
2018-09-21T04:35:35.531Z,98829.16
2018-09-21T04:38:06.392Z,98828.83
2018-09-21T04:40:36.847Z,98833.26
2018-09-21T04:43:07.381Z,98825.83
2018-09-21T04:45:37.755Z,98822.02
2018-09-21T04:48:08.450Z,98821.70
2018-09-21T04:50:38.941Z,98823.83
2018-09-21T04:53:09.583Z,98823.97
2018-09-21T04:55:40.131Z,98819.54
2018-09-21T04:58:10.754Z,98816.42
2018-09-21T05:00:42.389Z,98819.54
2018-09-21T05:03:13.143Z,98821.19
2018-09-21T05:05:43.999Z,98820.23
2018-09-21T05:08:14.415Z,98818.76
2018-09-21T05:10:44.947Z,98809.95
2018-09-21T05:13:15.506Z,98818.13
2018-09-21T05:15:46.173Z,98823.69
2018-09-21T05:18:16.732Z,98825.63
2018-09-21T05:20:47.446Z,98825.11
2018-09-21T05:23:18.113Z,98824.52
2018-09-21T05:25:49.004Z,98818.67
2018-09-21T05:28:19.845Z,98823.46
2018-09-21T05:30:50.439Z,98826.66
2018-09-21T05:33:21.513Z,98825.47
2018-09-21T05:35:51.981Z,98834.62
2018-09-21T05:38:22.591Z,98828.88
2018-09-21T05:40:53.390Z,98834.46
2018-09-21T05:43:24.038Z,98837.97
2018-09-21T05:45:54.448Z,98837.06
2018-09-21T05:48:25.300Z,98843.56
2018-09-21T05:50:56.308Z,98844.28
2018-09-21T05:53:27.898Z,98848.47
2018-09-21T05:55:58.693Z,98852.11
2018-09-21T05:58:29.640Z,98858.02
2018-09-21T06:00:59.923Z,98854.15
2018-09-21T06:03:30.766Z,98847.50
2018-09-21T06:06:01.425Z,98846.62
2018-09-21T06:08:31.943Z,98843.90
2018-09-21T06:11:02.854Z,98846.77
2018-09-21T06:13:33.485Z,98842.98
2018-09-21T06:16:03.864Z,98843.47
2018-09-21T06:18:34.844Z,98847.14
2018-09-21T06:21:05.713Z,98846.47
2018-09-21T06:23:36.576Z,98848.24
2018-09-21T06:26:07.290Z,98849.22
2018-09-21T06:28:38.059Z,98848.67
2018-09-21T06:31:10.243Z,98848.90
2018-09-21T06:33:41.025Z,98843.39
2018-09-21T06:36:13.454Z,98843.03
2018-09-21T06:38:45.499Z,98842.48
2018-09-21T06:41:17.108Z,98840.64
2018-09-21T06:43:49.484Z,98843.11
2018-09-21T06:46:20.560Z,98849.12
2018-09-21T06:48:51.412Z,98850.92
2018-09-21T06:51:22.340Z,98850.52
2018-09-21T06:53:56.137Z,98854.05
2018-09-21T06:56:27.303Z,98857.23
2018-09-21T06:58:58.326Z,98859.09
2018-09-21T07:01:29.164Z,98850.48
2018-09-21T07:03:59.995Z,98852.24
2018-09-21T07:06:31.462Z,98854.02
2018-09-21T07:09:02.328Z,98857.63
2018-09-21T07:11:34.657Z,98856.98
2018-09-21T07:14:06.378Z,98856.77
2018-09-21T07:16:38.143Z,98857.31
2018-09-21T07:19:09.146Z,98848.75
2018-09-21T07:21:42.216Z,98855.28
2018-09-21T07:24:13.478Z,98848.91
2018-09-21T07:26:44.625Z,98848.13
2018-09-21T07:29:19.420Z,98854.30
2018-09-21T07:31:50.666Z,98851.23
2018-09-21T07:34:21.773Z,98841.34
2018-09-21T07:36:52.754Z,98843.93
2018-09-21T07:39:23.529Z,98843.48
2018-09-21T07:41:56.876Z,98853.86
2018-09-21T07:44:28.000Z,98854.31
2018-09-21T07:46:58.807Z,98852.11
2018-09-21T07:49:30.157Z,98854.72
2018-09-21T07:52:01.501Z,98860.28
2018-09-21T07:54:32.243Z,98857.02
2018-09-21T07:57:02.926Z,98855.38
2018-09-21T07:59:33.553Z,98859.45
2018-09-21T08:02:04.564Z,98863.23
2018-09-21T08:04:35.358Z,98863.20
2018-09-21T08:07:06.550Z,98869.62
2018-09-21T08:09:39.147Z,98870.55
2018-09-21T08:12:10.815Z,98869.55
2018-09-21T08:14:43.344Z,98864.16
2018-09-21T08:17:15.261Z,98869.40
2018-09-21T08:19:45.910Z,98863.50
2018-09-21T08:22:16.694Z,98861.91
2018-09-21T08:24:47.221Z,98864.18
2018-09-21T08:27:19.325Z,98869.09
2018-09-21T08:29:50.844Z,98860.11
2018-09-21T08:32:21.413Z,98861.67
2018-09-21T08:34:52.277Z,98861.36
2018-09-21T08:37:23.034Z,98857.87
2018-09-21T08:39:53.561Z,98854.78
2018-09-21T08:42:24.196Z,98864.05
2018-09-21T08:44:55.280Z,98863.00
2018-09-21T08:47:26.107Z,98861.55
2018-09-21T08:49:56.761Z,98855.66
2018-09-21T08:52:27.350Z,98860.63
2018-09-21T08:54:57.946Z,98865.81
2018-09-21T08:57:28.553Z,98859.95
2018-09-21T08:59:58.989Z,98866.32
2018-09-21T09:02:29.456Z,98853.95
2018-09-21T09:05:00.638Z,98854.13
2018-09-21T09:07:31.224Z,98863.23
2018-09-21T09:10:01.814Z,98859.95
2018-09-21T09:12:32.379Z,98864.70
2018-09-21T09:15:02.727Z,98862.77
2018-09-21T09:17:33.313Z,98868.13
2018-09-21T09:20:03.815Z,98861.67
2018-09-21T09:22:34.342Z,98861.72
2018-09-21T09:25:05.734Z,98866.64
2018-09-21T09:27:37.624Z,98859.42
2018-09-21T09:30:08.511Z,98861.22
2018-09-21T09:32:38.955Z,98860.47
2018-09-21T09:35:10.642Z,98851.11
2018-09-21T09:37:41.595Z,98853.93
2018-09-21T09:40:12.273Z,98850.13
2018-09-21T09:42:42.900Z,98854.90
2018-09-21T09:45:13.480Z,98855.03
2018-09-21T09:47:44.178Z,98856.28
2018-09-21T09:50:15.170Z,98852.28
2018-09-21T09:52:46.280Z,98848.25
2018-09-21T09:55:17.004Z,98858.34
2018-09-21T09:57:48.511Z,98852.67
2018-09-21T10:00:24.569Z,98851.65
2018-09-21T10:02:56.036Z,98843.33
2018-09-21T10:05:26.731Z,98846.05
2018-09-21T10:07:57.320Z,98846.28
2018-09-21T10:10:28.000Z,98837.39
2018-09-21T10:12:58.710Z,98839.05
2018-09-21T10:15:29.441Z,98837.19
2018-09-21T10:18:00.082Z,98843.96
2018-09-21T10:20:32.035Z,98833.86
2018-09-21T10:23:03.347Z,98842.14
2018-09-21T10:25:34.405Z,98847.38
2018-09-21T10:28:05.347Z,98843.27
2018-09-21T10:30:36.027Z,98847.14
2018-09-21T10:33:06.859Z,98845.05
2018-09-21T10:35:37.987Z,98840.23
2018-09-21T10:38:08.666Z,98836.04
2018-09-21T10:40:39.630Z,98836.09
2018-09-21T10:43:10.897Z,98837.11
2018-09-21T10:45:41.605Z,98839.63
2018-09-21T10:48:12.284Z,98833.83
2018-09-21T10:50:43.026Z,98833.03
2018-09-21T10:53:13.881Z,98833.48
2018-09-21T10:55:44.278Z,98828.87
2018-09-21T10:58:14.899Z,98831.64
2018-09-21T11:00:45.819Z,98819.11
2018-09-21T11:03:16.639Z,98815.12
2018-09-21T11:05:47.768Z,98809.14
2018-09-21T11:08:18.617Z,98803.02
2018-09-21T11:10:49.252Z,98805.41
2018-09-21T11:13:19.937Z,98811.53
2018-09-21T11:15:50.568Z,98800.05
2018-09-21T11:18:21.411Z,98804.08
2018-09-21T11:20:52.061Z,98798.75
2018-09-21T11:23:22.716Z,98796.50
2018-09-21T11:25:53.780Z,98781.13
2018-09-21T11:28:25.128Z,98782.05
2018-09-21T11:30:55.818Z,98781.19
2018-09-21T11:33:26.804Z,98781.39
2018-09-21T11:35:58.097Z,98771.47
2018-09-21T11:38:29.439Z,98770.11
2018-09-21T11:41:00.617Z,98772.47
2018-09-21T11:43:32.371Z,98758.66
2018-09-21T11:46:03.888Z,98759.41
2018-09-21T11:48:34.470Z,98755.88
2018-09-21T11:51:05.406Z,98759.73
2018-09-21T11:53:36.142Z,98751.56
2018-09-21T11:56:07.046Z,98753.08
2018-09-21T11:58:37.846Z,98755.09
2018-09-21T12:01:08.657Z,98750.26
2018-09-21T12:03:39.325Z,98744.34
2018-09-21T12:06:10.090Z,98750.15
2018-09-21T12:08:40.591Z,98738.17
2018-09-21T12:11:11.348Z,98741.47
2018-09-21T12:13:42.115Z,98742.50
2018-09-21T12:16:13.112Z,98734.00
2018-09-21T12:18:44.544Z,98730.25
2018-09-21T12:21:16.114Z,98731.38
2018-09-21T12:23:47.340Z,98728.80
2018-09-21T12:26:20.227Z,98727.94
2018-09-21T12:28:51.408Z,98729.24
2018-09-21T12:31:23.572Z,98728.45
2018-09-21T12:33:57.163Z,98728.22
2018-09-21T12:36:34.686Z,98720.19
2018-09-21T12:39:17.354Z,98725.53
2018-09-21T12:41:48.640Z,98725.90
2018-09-21T12:44:21.439Z,98717.16
2018-09-21T12:46:52.637Z,98721.37
2018-09-21T12:49:23.299Z,98712.65
2018-09-21T12:51:56.483Z,98714.61
2018-09-21T12:54:29.343Z,98713.52
2018-09-21T12:57:00.413Z,98708.48
2018-09-21T12:59:31.554Z,98710.55
2018-09-21T13:02:02.662Z,98708.34
2018-09-21T13:04:34.921Z,98701.66
2018-09-21T13:07:06.049Z,98694.19
2018-09-21T13:09:38.052Z,98689.27
2018-09-21T13:12:09.623Z,98689.48
2018-09-21T13:14:40.913Z,98676.55
2018-09-21T13:17:12.462Z,98678.77
2018-09-21T13:19:43.007Z,98679.41
2018-09-21T13:22:14.479Z,98674.30
2018-09-21T13:24:46.266Z,98681.22
2018-09-21T13:27:16.905Z,98678.75
2018-09-21T13:29:48.089Z,98675.31
2018-09-21T13:32:18.797Z,98675.17
2018-09-21T13:34:50.091Z,98676.23
2018-09-21T13:37:20.794Z,98678.44
2018-09-21T13:39:52.008Z,98678.59
2018-09-21T13:42:22.944Z,98673.65
2018-09-21T13:44:54.521Z,98670.71
2018-09-21T13:47:25.596Z,98672.92
2018-09-21T13:49:59.289Z,98675.41
2018-09-21T13:52:31.563Z,98670.85
2018-09-21T13:55:10.157Z,98677.83
2018-09-21T13:57:41.128Z,98668.80
2018-09-21T14:00:12.803Z,98664.38
2018-09-21T14:02:47.085Z,98672.27
2018-09-21T14:05:18.368Z,98670.34
2018-09-21T14:07:50.022Z,98674.04
2018-09-21T14:10:20.795Z,98671.72
2018-09-21T14:12:51.937Z,98674.02
2018-09-21T14:15:22.813Z,98688.85
2018-09-21T14:17:54.108Z,98678.84
2018-09-21T14:20:25.281Z,98682.06
2018-09-21T14:22:56.545Z,98676.25
2018-09-21T14:25:27.342Z,98685.41
2018-09-21T14:27:58.479Z,98685.56
2018-09-21T14:30:30.492Z,98681.83
2018-09-21T14:33:01.026Z,98678.79
2018-09-21T14:35:32.993Z,98680.48
2018-09-21T14:38:04.518Z,98686.67
2018-09-21T14:40:35.254Z,98683.42
2018-09-21T14:43:06.073Z,98684.08
2018-09-21T14:45:37.199Z,98678.17
2018-09-21T14:48:08.370Z,98679.19
2018-09-21T14:50:39.719Z,98682.89
2018-09-21T14:53:10.503Z,98688.09
2018-09-21T14:55:42.009Z,98686.74
2018-09-21T14:58:12.697Z,98685.89
2018-09-21T15:00:43.606Z,98696.88
2018-09-21T15:03:15.067Z,98697.77
2018-09-21T15:05:46.840Z,98701.39
2018-09-21T15:08:18.496Z,98702.24
2018-09-21T15:10:49.367Z,98704.30
2018-09-21T15:13:20.549Z,98705.56
2018-09-21T15:15:51.737Z,98708.34
2018-09-21T15:18:23.080Z,98701.11
2018-09-21T15:20:53.860Z,98702.88
2018-09-21T15:23:24.470Z,98708.93
2018-09-21T15:25:56.715Z,98711.11
2018-09-21T15:28:28.326Z,98713.19
2018-09-21T15:31:03.512Z,98715.97
2018-09-21T15:33:35.776Z,98715.89
2018-09-21T15:36:06.685Z,98719.05
2018-09-21T15:38:41.038Z,98716.20
2018-09-21T15:41:12.606Z,98718.24
2018-09-21T15:43:44.424Z,98714.21
2018-09-21T15:46:26.651Z,98720.19
2018-09-21T15:49:05.292Z,98722.14
2018-09-21T15:51:37.916Z,98724.86
2018-09-21T15:54:09.324Z,98721.88
2018-09-21T15:56:40.437Z,98723.56
2018-09-21T15:59:10.778Z,98726.05
2018-09-21T16:01:41.390Z,98725.83
2018-09-21T16:04:12.096Z,98723.05
2018-09-21T16:06:42.709Z,98723.52
2018-09-21T16:09:13.882Z,98727.34
2018-09-21T16:11:44.577Z,98722.83
2018-09-21T16:14:15.416Z,98728.87
2018-09-21T16:16:46.108Z,98731.25
2018-09-21T16:19:16.609Z,98721.05
2018-09-21T16:21:47.133Z,98726.31
2018-09-21T16:24:18.108Z,98734.86
2018-09-21T16:26:48.579Z,98726.38
2018-09-21T16:29:19.100Z,98718.45
2018-09-21T16:31:49.767Z,98723.88
2018-09-21T16:34:20.538Z,98723.37
2018-09-21T16:36:51.774Z,98728.29
2018-09-21T16:39:22.569Z,98724.09
2018-09-21T16:41:53.081Z,98730.35
2018-09-21T16:44:23.892Z,98722.55
2018-09-21T16:46:54.748Z,98735.14
2018-09-21T16:49:26.170Z,98741.63
2018-09-21T16:51:57.046Z,98735.77
2018-09-21T16:54:29.288Z,98739.06
2018-09-21T16:57:00.211Z,98738.55
2018-09-21T16:59:30.823Z,98737.11
2018-09-21T17:02:01.508Z,98741.34
2018-09-21T17:04:34.424Z,98741.02
2018-09-21T17:07:07.207Z,98732.80
2018-09-21T17:09:40.550Z,98730.84
2018-09-21T17:12:12.390Z,98733.88
2018-09-21T17:14:43.493Z,98729.77
2018-09-21T17:17:15.785Z,98721.73
2018-09-21T17:19:47.029Z,98717.16
2018-09-21T17:22:18.414Z,98720.98
2018-09-21T17:24:50.467Z,98720.36
2018-09-21T17:27:21.840Z,98713.83
2018-09-21T17:29:57.077Z,98712.56
2018-09-21T17:32:28.523Z,98713.60
2018-09-21T17:35:00.173Z,98714.41
2018-09-21T17:37:33.027Z,98707.20
2018-09-21T17:40:05.128Z,98718.80
2018-09-21T17:42:37.368Z,98719.89
2018-09-21T17:45:09.532Z,98721.61
2018-09-21T17:47:41.451Z,98724.08
2018-09-21T17:50:13.738Z,98726.59
2018-09-21T17:52:45.827Z,98724.34
2018-09-21T17:55:17.656Z,98718.72
2018-09-21T17:57:49.495Z,98729.99
2018-09-21T18:00:21.300Z,98738.09
2018-09-21T18:02:53.402Z,98738.22
2018-09-21T18:05:26.440Z,98746.72
2018-09-21T18:07:59.128Z,98752.55
2018-09-21T18:10:30.977Z,98762.31
2018-09-21T18:13:02.830Z,98767.54
2018-09-21T18:15:36.185Z,98777.45
2018-09-21T18:18:08.868Z,98779.55
2018-09-21T18:20:54.070Z,98776.38
2018-09-21T18:23:35.222Z,98778.22
2018-09-21T18:26:09.395Z,98777.22
2018-09-21T18:28:41.238Z,98783.16
2018-09-21T18:31:13.885Z,98783.29
2018-09-21T18:33:47.571Z,98785.95
2018-09-21T18:36:23.989Z,98790.95
2018-09-21T18:38:56.797Z,98797.30
2018-09-21T18:41:36.320Z,98795.09
2018-09-21T18:44:14.878Z,98804.55
2018-09-21T18:46:53.196Z,98795.00
2018-09-21T18:49:33.127Z,98792.39
2018-09-21T18:52:14.268Z,98808.70
2018-09-21T18:54:59.308Z,98815.64
2018-09-21T18:57:36.241Z,98820.09
2018-09-21T19:00:13.536Z,98827.39
2018-09-21T19:02:47.365Z,98825.42
2018-09-21T19:05:23.140Z,98833.16
2018-09-21T19:08:03.584Z,98833.94
2018-09-21T19:10:51.592Z,98825.95
2018-09-21T19:13:37.681Z,98824.72
2018-09-21T19:16:14.322Z,98830.34
2018-09-21T19:18:59.570Z,98833.30
2018-09-21T19:21:32.508Z,98836.27
2018-09-21T19:24:04.953Z,98841.59
2018-09-21T19:26:36.086Z,98844.65
2018-09-21T19:29:07.592Z,98849.48
2018-09-21T19:31:41.263Z,98845.24
2018-09-21T19:34:12.564Z,98851.51
2018-09-21T19:36:44.733Z,98857.48
2018-09-21T19:39:19.896Z,98857.45
2018-09-21T19:41:52.466Z,98859.13
2018-09-21T19:44:25.524Z,98856.61
2018-09-21T19:47:05.395Z,98860.70
2018-09-21T19:49:48.670Z,98859.21
2018-09-21T19:52:28.358Z,98859.36
2018-09-21T19:55:04.720Z,98865.37
2018-09-21T19:57:38.511Z,98864.47
2018-09-21T20:00:18.577Z,98866.79
2018-09-21T20:02:53.269Z,98867.55
2018-09-21T20:05:34.452Z,98873.02
2018-09-21T20:08:19.204Z,98878.37
2018-09-21T20:11:03.685Z,98874.94
2018-09-21T20:13:38.671Z,98875.62
2018-09-21T20:16:16.302Z,98870.25
2018-09-21T20:18:49.241Z,98877.47
2018-09-21T20:21:20.238Z,98880.30
2018-09-21T20:23:52.282Z,98886.45
2018-09-21T20:26:23.287Z,98889.26
2018-09-21T20:28:55.257Z,98880.34
2018-09-21T20:31:51.055Z,98882.33
2018-09-21T20:34:23.121Z,98878.49
2018-09-21T20:36:54.118Z,98879.16
2018-09-21T20:39:24.998Z,98880.06
2018-09-21T20:41:55.758Z,98881.72
2018-09-21T20:44:26.981Z,98896.34
2018-09-21T20:46:59.532Z,98899.69
2018-09-21T20:49:32.737Z,98902.72
2018-09-21T20:52:03.520Z,98894.11
2018-09-21T20:54:34.378Z,98895.09
2018-09-21T20:57:06.379Z,98888.16
2018-09-21T20:59:37.480Z,98896.83
2018-09-21T21:02:08.629Z,98898.19
2018-09-21T21:04:39.417Z,98898.19
2018-09-21T21:07:10.208Z,98897.70
2018-09-21T21:09:41.140Z,98903.17
2018-09-21T21:12:11.990Z,98904.83
2018-09-21T21:14:43.591Z,98911.77
2018-09-21T21:17:14.312Z,98912.77
2018-09-21T21:19:45.413Z,98912.13
2018-09-21T21:22:16.380Z,98910.83
2018-09-21T21:24:47.272Z,98907.31
2018-09-21T21:27:18.003Z,98907.15
2018-09-21T21:29:48.722Z,98910.16
2018-09-21T21:32:23.030Z,98906.82
2018-09-21T21:34:54.015Z,98909.33
2018-09-21T21:37:24.805Z,98913.80
2018-09-21T21:39:55.649Z,98908.00
2018-09-21T21:42:26.364Z,98917.59
2018-09-21T21:44:57.278Z,98919.93
2018-09-21T21:47:28.314Z,98922.23
2018-09-21T21:49:58.956Z,98914.45
2018-09-21T21:52:29.513Z,98915.62
2018-09-21T21:55:00.574Z,98918.11
2018-09-21T21:57:31.448Z,98912.62
2018-09-21T22:00:02.053Z,98911.29
2018-09-21T22:02:35.822Z,98911.30
2018-09-21T22:05:07.316Z,98918.12
2018-09-21T22:07:39.245Z,98914.12
2018-09-21T22:10:10.949Z,98924.25
2018-09-21T22:12:46.574Z,98924.73
2018-09-21T22:15:20.363Z,98925.75
2018-09-21T22:17:51.314Z,98931.37
2018-09-21T22:20:22.203Z,98930.04
2018-09-21T22:22:52.783Z,98933.67
2018-09-21T22:25:23.759Z,98923.58
2018-09-21T22:27:54.567Z,98925.87
2018-09-21T22:30:25.328Z,98922.39
2018-09-21T22:32:56.316Z,98922.08
2018-09-21T22:35:27.308Z,98919.91
2018-09-21T22:37:58.257Z,98912.97
2018-09-21T22:40:29.099Z,98911.46
2018-09-21T22:42:59.778Z,98915.26
2018-09-21T22:45:30.516Z,98915.42
2018-09-21T22:48:01.510Z,98914.38
2018-09-21T22:50:32.239Z,98911.36
2018-09-21T22:53:03.220Z,98912.00
2018-09-21T22:55:33.827Z,98910.34
2018-09-21T22:58:04.652Z,98915.27
2018-09-21T23:00:35.166Z,98918.87
2018-09-21T23:03:05.922Z,98923.17
2018-09-21T23:05:36.499Z,98927.13
2018-09-21T23:08:07.578Z,98927.79
2018-09-21T23:10:38.250Z,98924.45
2018-09-21T23:13:08.838Z,98925.71
2018-09-21T23:15:39.492Z,98918.75
2018-09-21T23:18:10.285Z,98913.60
2018-09-21T23:20:41.162Z,98905.98
2018-09-21T23:23:11.878Z,98905.16
2018-09-21T23:25:42.743Z,98909.30
2018-09-21T23:28:13.711Z,98904.98
2018-09-21T23:30:44.427Z,98901.13
2018-09-21T23:33:15.735Z,98900.14
2018-09-21T23:35:46.257Z,98903.75
2018-09-21T23:38:17.224Z,98902.95
2018-09-21T23:40:47.943Z,98910.23
2018-09-21T23:43:18.505Z,98912.20
2018-09-21T23:45:49.268Z,98916.02
2018-09-21T23:48:20.279Z,98923.23
2018-09-21T23:50:50.872Z,98923.03
2018-09-21T23:53:21.567Z,98925.44
2018-09-21T23:55:52.288Z,98920.88
2018-09-21T23:58:23.438Z,98924.59
